createdAt,value
2019-04-03T00:01:40.844Z,12.50
2019-04-03T00:04:28.673Z,12.50
2019-04-03T00:07:16.486Z,12.60
2019-04-03T00:10:06.727Z,12.60
2019-04-03T00:12:54.055Z,12.60
2019-04-03T00:15:42.829Z,12.50
2019-04-03T00:18:30.948Z,12.50
2019-04-03T00:21:19.748Z,12.50
2019-04-03T00:24:07.296Z,12.50
2019-04-03T00:26:55.133Z,12.50
2019-04-03T00:29:42.780Z,12.60
2019-04-03T00:32:30.323Z,12.60
2019-04-03T00:35:18.116Z,12.60
2019-04-03T00:38:05.698Z,12.60
2019-04-03T00:40:54.397Z,12.60
2019-04-03T00:43:42.609Z,12.50
2019-04-03T00:46:30.107Z,12.50
2019-04-03T00:49:18.029Z,12.40
2019-04-03T00:52:05.848Z,12.40
2019-04-03T00:54:56.118Z,12.30
2019-04-03T00:57:42.839Z,12.30
2019-04-03T01:00:30.725Z,12.30
2019-04-03T01:03:18.389Z,12.20
2019-04-03T01:06:06.565Z,12.20
2019-04-03T01:08:54.387Z,12.20
2019-04-03T01:11:41.968Z,12.20
2019-04-03T01:14:31.576Z,12.20
2019-04-03T01:17:20.107Z,12.20
2019-04-03T01:20:09.047Z,12.20
2019-04-03T01:22:56.441Z,12.00
2019-04-03T01:25:44.089Z,12.00
2019-04-03T01:28:31.485Z,11.80
2019-04-03T01:31:19.360Z,11.30
2019-04-03T01:34:07.697Z,11.10
2019-04-03T01:36:55.771Z,11.20
2019-04-03T01:39:43.662Z,11.20
2019-04-03T01:42:31.280Z,11.20
2019-04-03T01:45:19.122Z,11.20
2019-04-03T01:48:07.177Z,11.20
2019-04-03T01:50:54.767Z,11.20
2019-04-03T01:53:42.482Z,11.20
2019-04-03T01:56:29.949Z,11.20
2019-04-03T01:59:17.762Z,11.20
2019-04-03T02:02:06.860Z,11.20
2019-04-03T02:04:54.905Z,11.10
2019-04-03T02:07:44.720Z,11.10
2019-04-03T02:10:32.421Z,11.10
2019-04-03T02:13:21.866Z,11.10
2019-04-03T02:16:09.629Z,11.10
2019-04-03T02:18:57.641Z,10.90
2019-04-03T02:21:45.368Z,11.00
2019-04-03T02:24:33.070Z,11.00
2019-04-03T02:27:21.048Z,11.00
2019-04-03T02:30:12.317Z,10.90
2019-04-03T02:32:58.610Z,10.90
2019-04-03T02:35:45.914Z,10.90
2019-04-03T02:38:33.225Z,10.80
2019-04-03T02:41:20.610Z,10.70
2019-04-03T02:44:07.812Z,10.60
2019-04-03T02:46:54.966Z,10.60
2019-04-03T02:49:43.165Z,10.50
2019-04-03T02:52:31.549Z,10.40
2019-04-03T02:55:19.361Z,10.30
2019-04-03T02:58:06.790Z,10.20
2019-04-03T03:00:54.016Z,10.10
2019-04-03T03:03:41.674Z,10.00
2019-04-03T03:06:31.511Z,9.90
2019-04-03T03:09:18.525Z,9.80
2019-04-03T03:12:05.969Z,9.80
2019-04-03T03:14:53.487Z,9.70
2019-04-03T03:17:41.087Z,9.70
2019-04-03T03:20:30.354Z,9.60
2019-04-03T03:23:18.576Z,9.60
2019-04-03T03:26:07.472Z,9.50
2019-04-03T03:28:55.616Z,9.50
2019-04-03T03:32:06.286Z,9.40
2019-04-03T03:34:50.786Z,9.30
2019-04-03T03:37:22.981Z,9.10
2019-04-03T03:40:13.092Z,9.10
2019-04-03T03:43:03.571Z,9.00
2019-04-03T03:45:52.543Z,8.90
2019-04-03T03:48:44.058Z,8.80
2019-04-03T03:51:33.789Z,8.80
2019-04-03T03:54:21.502Z,8.70
2019-04-03T03:57:09.038Z,8.70
2019-04-03T03:59:56.212Z,8.60
2019-04-03T04:02:45.131Z,8.50
2019-04-03T04:05:32.850Z,8.40
2019-04-03T04:08:20.749Z,8.40
2019-04-03T04:11:08.621Z,8.30
2019-04-03T04:13:56.738Z,8.20
2019-04-03T04:16:44.328Z,8.00
2019-04-03T04:19:32.472Z,8.00
2019-04-03T04:22:20.318Z,7.90
2019-04-03T04:25:08.744Z,7.70
2019-04-03T04:27:56.462Z,7.60
2019-04-03T04:30:45.999Z,7.50
2019-04-03T04:33:33.468Z,7.50
2019-04-03T04:36:23.599Z,7.50
2019-04-03T04:39:11.352Z,7.40
2019-04-03T04:41:59.241Z,7.40
2019-04-03T04:44:47.364Z,7.40
2019-04-03T04:47:35.231Z,7.40
2019-04-03T04:50:25.377Z,7.40
2019-04-03T04:53:12.268Z,7.30
2019-04-03T04:55:59.824Z,7.20
2019-04-03T04:58:47.535Z,7.10
2019-04-03T05:01:35.923Z,7.10
2019-04-03T05:04:25.310Z,7.10
2019-04-03T05:07:12.998Z,7.10
2019-04-03T05:10:00.852Z,7.10
2019-04-03T05:12:48.771Z,7.10
2019-04-03T05:15:36.268Z,7.00
2019-04-03T05:18:24.148Z,7.00
2019-04-03T05:21:12.145Z,7.00
2019-04-03T05:24:11.009Z,7.00
2019-04-03T05:26:48.983Z,7.10
2019-04-03T05:29:36.824Z,7.10
2019-04-03T05:32:25.079Z,7.00
2019-04-03T05:35:14.715Z,7.00
2019-04-03T05:38:02.621Z,7.00
2019-04-03T05:40:50.690Z,7.00
2019-04-03T05:43:38.762Z,7.00
2019-04-03T05:46:26.372Z,7.00
2019-04-03T05:49:14.335Z,7.10
2019-04-03T05:52:03.436Z,7.10
2019-04-03T05:54:51.400Z,7.10
2019-04-03T05:57:38.961Z,7.10
2019-04-03T06:00:27.214Z,7.00
2019-04-03T06:03:14.993Z,6.90
2019-04-03T06:06:02.351Z,7.00
2019-04-03T06:08:51.601Z,7.00
2019-04-03T06:11:41.151Z,7.10
2019-04-03T06:14:29.069Z,7.20
2019-04-03T06:17:16.801Z,7.20
2019-04-03T06:20:05.343Z,7.30
2019-04-03T06:22:52.987Z,7.30
2019-04-03T06:25:40.533Z,7.40
2019-04-03T06:28:28.141Z,7.50
2019-04-03T06:31:15.858Z,7.60
2019-04-03T06:34:06.663Z,7.70
2019-04-03T06:36:53.782Z,7.80
2019-04-03T06:39:41.421Z,7.90
2019-04-03T06:42:29.377Z,8.10
2019-04-03T06:45:16.883Z,8.10
2019-04-03T06:48:05.501Z,8.00
2019-04-03T06:50:53.701Z,8.20
2019-04-03T06:53:41.421Z,8.40
2019-04-03T06:56:28.886Z,8.60
2019-04-03T06:59:17.130Z,8.80
2019-04-03T07:02:05.206Z,9.10
2019-04-03T07:04:53.378Z,9.40
2019-04-03T07:07:40.979Z,9.60
2019-04-03T07:10:29.136Z,9.90
2019-04-03T07:13:18.576Z,10.10
2019-04-03T07:16:06.487Z,10.30
2019-04-03T07:18:54.560Z,10.40
2019-04-03T07:21:42.301Z,10.60
2019-04-03T07:24:29.821Z,10.80
2019-04-03T07:27:19.273Z,11.00
2019-04-03T07:30:07.546Z,11.10
2019-04-03T07:32:58.031Z,11.30
2019-04-03T07:35:45.049Z,11.50
2019-04-03T07:38:32.966Z,11.80
2019-04-03T07:41:23.357Z,11.90
2019-04-03T07:44:10.289Z,12.00
2019-04-03T07:46:57.972Z,11.90
2019-04-03T07:49:45.668Z,12.00
2019-04-03T07:52:33.847Z,12.10
2019-04-03T07:55:22.161Z,12.20
2019-04-03T07:58:11.126Z,12.30
2019-04-03T08:00:59.109Z,12.50
2019-04-03T08:03:46.496Z,12.70
2019-04-03T08:06:35.844Z,13.00
2019-04-03T08:09:24.021Z,13.20
2019-04-03T08:12:11.810Z,13.40
2019-04-03T08:14:59.557Z,13.50
2019-04-03T08:17:49.222Z,13.60
2019-04-03T08:20:36.759Z,13.50
2019-04-03T08:23:24.529Z,13.60
2019-04-03T08:26:12.408Z,13.80
2019-04-03T08:29:01.784Z,14.00
2019-04-03T08:31:50.063Z,14.20
2019-04-03T08:34:37.884Z,14.30
2019-04-03T08:37:30.166Z,14.30
2019-04-03T08:40:15.482Z,14.30
2019-04-03T08:43:03.395Z,14.30
2019-04-03T08:45:51.284Z,14.50
2019-04-03T08:48:39.486Z,14.50
2019-04-03T08:51:27.279Z,14.50
2019-04-03T08:54:15.149Z,14.50
2019-04-03T08:57:02.616Z,14.80
2019-04-03T08:59:50.549Z,15.00
2019-04-03T09:02:38.247Z,15.20
2019-04-03T09:05:25.550Z,15.30
2019-04-03T09:08:14.089Z,15.60
2019-04-03T09:11:04.204Z,15.60
2019-04-03T09:13:52.741Z,15.70
2019-04-03T09:16:40.505Z,15.70
2019-04-03T09:19:28.198Z,15.80
2019-04-03T09:22:15.674Z,15.80
2019-04-03T09:25:04.182Z,15.90
2019-04-03T09:27:52.116Z,16.10
2019-04-03T09:30:40.391Z,16.20
2019-04-03T09:33:29.771Z,16.20
2019-04-03T09:36:18.623Z,16.40
2019-04-03T09:39:12.900Z,16.40
2019-04-03T09:41:59.807Z,16.40
2019-04-03T09:44:47.161Z,16.30
2019-04-03T09:47:35.534Z,16.30
2019-04-03T09:50:23.761Z,16.60
2019-04-03T09:53:11.621Z,16.70
2019-04-03T09:55:59.679Z,16.70
2019-04-03T09:58:47.599Z,16.80
2019-04-03T10:01:35.132Z,17.10
2019-04-03T10:04:24.158Z,17.10
2019-04-03T10:07:12.486Z,17.20
2019-04-03T10:09:59.827Z,17.40
2019-04-03T10:12:48.481Z,17.50
2019-04-03T10:15:36.979Z,17.60
2019-04-03T10:18:25.005Z,17.70
2019-04-03T10:21:13.125Z,17.70
2019-04-03T10:24:01.035Z,17.50
2019-04-03T10:26:49.477Z,17.60
2019-04-03T10:29:37.607Z,17.20
2019-04-03T10:32:27.681Z,16.90
2019-04-03T10:35:15.218Z,17.30
2019-04-03T10:38:03.532Z,17.70
2019-04-03T10:40:51.556Z,17.80
2019-04-03T10:43:39.125Z,17.90
2019-04-03T10:46:26.516Z,18.10
2019-04-03T10:49:14.399Z,18.20
2019-04-03T10:52:02.108Z,18.30
2019-04-03T10:54:50.478Z,18.30
2019-04-03T10:57:38.222Z,17.90
2019-04-03T11:00:28.839Z,18.10
2019-04-03T11:03:16.298Z,18.10
2019-04-03T11:06:04.177Z,18.30
2019-04-03T11:08:52.186Z,18.20
2019-04-03T11:11:42.630Z,18.60
2019-04-03T11:14:29.476Z,18.90
2019-04-03T11:17:18.096Z,19.00
2019-04-03T11:20:09.701Z,19.10
2019-04-03T11:23:05.369Z,18.90
2019-04-03T11:25:46.361Z,19.10
2019-04-03T11:28:37.468Z,19.40
2019-04-03T11:31:28.003Z,19.40
2019-04-03T11:34:15.188Z,19.30
2019-04-03T11:37:02.780Z,19.30
2019-04-03T11:40:01.397Z,19.40
2019-04-03T11:42:40.130Z,19.40
2019-04-03T11:45:28.271Z,19.40
2019-04-03T11:48:17.245Z,19.70
2019-04-03T11:51:05.335Z,19.80
2019-04-03T11:53:53.360Z,20.00
2019-04-03T11:56:41.567Z,19.70
2019-04-03T11:59:29.334Z,19.80
2019-04-03T12:02:17.398Z,19.30
2019-04-03T12:05:05.764Z,19.70
2019-04-03T12:07:55.535Z,19.60
2019-04-03T12:10:43.264Z,19.90
2019-04-03T12:13:31.168Z,19.80
2019-04-03T12:16:18.839Z,19.60
2019-04-03T12:19:07.099Z,19.70
2019-04-03T12:21:55.003Z,19.50
2019-04-03T12:24:42.763Z,19.80
2019-04-03T12:27:30.313Z,19.80
2019-04-03T12:30:17.815Z,19.80
2019-04-03T12:33:05.830Z,19.90
2019-04-03T12:35:53.251Z,20.00
2019-04-03T12:38:41.089Z,19.90
2019-04-03T12:41:29.021Z,19.90
2019-04-03T12:44:16.664Z,19.80
2019-04-03T12:47:07.009Z,19.80
2019-04-03T12:49:55.038Z,19.60
2019-04-03T12:52:44.410Z,19.40
2019-04-03T12:55:32.713Z,19.10
2019-04-03T12:58:20.321Z,19.00
2019-04-03T13:01:10.634Z,18.90
2019-04-03T13:03:57.612Z,19.20
2019-04-03T13:06:45.577Z,19.10
2019-04-03T13:09:33.357Z,19.20
2019-04-03T13:12:24.742Z,19.50
2019-04-03T13:15:11.787Z,19.40
2019-04-03T13:17:59.916Z,19.20
2019-04-03T13:20:48.084Z,19.20
2019-04-03T13:23:35.975Z,19.20
2019-04-03T13:26:24.757Z,18.90
2019-04-03T13:29:13.217Z,18.90
2019-04-03T13:32:00.975Z,18.80
2019-04-03T13:34:48.600Z,18.70
2019-04-03T13:37:36.336Z,18.70
2019-04-03T13:40:23.845Z,18.60
2019-04-03T13:43:11.695Z,18.70
2019-04-03T13:45:59.431Z,18.70
2019-04-03T13:48:47.350Z,18.80
2019-04-03T13:51:35.228Z,19.00
2019-04-03T13:54:25.196Z,18.70
2019-04-03T13:57:14.657Z,18.80
2019-04-03T14:00:11.295Z,18.70
2019-04-03T14:02:51.026Z,18.90
2019-04-03T14:05:38.592Z,18.80
2019-04-03T14:08:26.113Z,18.60
2019-04-03T14:11:14.003Z,18.40
2019-04-03T14:14:01.438Z,18.70
2019-04-03T14:16:49.073Z,18.80
2019-04-03T14:19:43.189Z,18.70
2019-04-03T14:22:26.158Z,18.90
2019-04-03T14:25:21.034Z,18.80
2019-04-03T14:28:04.038Z,19.00
2019-04-03T14:30:52.050Z,19.00
2019-04-03T14:33:44.896Z,19.10
2019-04-03T14:36:29.065Z,19.10
2019-04-03T14:39:16.579Z,19.20
2019-04-03T14:42:07.159Z,18.70
2019-04-03T14:44:54.604Z,18.70
2019-04-03T14:47:42.842Z,18.70
2019-04-03T14:50:30.910Z,18.60
2019-04-03T14:53:20.267Z,18.40
2019-04-03T14:56:07.616Z,18.30
2019-04-03T14:58:57.189Z,18.40
2019-04-03T15:01:44.686Z,18.40
2019-04-03T15:04:36.110Z,18.40
2019-04-03T15:07:21.976Z,18.20
2019-04-03T15:10:10.735Z,18.00
2019-04-03T15:12:58.897Z,17.80
2019-04-03T15:15:46.830Z,17.90
2019-04-03T15:18:34.907Z,17.90
2019-04-03T15:21:23.218Z,17.80
2019-04-03T15:24:12.483Z,17.60
2019-04-03T15:27:00.767Z,17.60
2019-04-03T15:29:48.605Z,17.60
2019-04-03T15:32:36.413Z,17.70
2019-04-03T15:35:24.591Z,17.50
2019-04-03T15:38:13.422Z,17.40
2019-04-03T15:41:02.423Z,17.40
2019-04-03T15:43:51.511Z,17.40
2019-04-03T15:46:39.770Z,17.30
2019-04-03T15:49:28.598Z,17.20
2019-04-03T15:52:17.036Z,17.20
2019-04-03T15:55:06.209Z,17.30
2019-04-03T15:57:53.993Z,17.10
2019-04-03T16:00:43.199Z,17.10
2019-04-03T16:03:31.653Z,17.10
2019-04-03T16:06:19.092Z,16.90
2019-04-03T16:09:09.090Z,16.90
2019-04-03T16:11:56.766Z,16.70
2019-04-03T16:14:44.520Z,16.70
2019-04-03T16:17:33.512Z,16.60
2019-04-03T16:20:21.458Z,16.70
2019-04-03T16:23:09.174Z,16.60
2019-04-03T16:25:57.004Z,16.70
2019-04-03T16:28:45.163Z,16.70
2019-04-03T16:31:32.729Z,16.60
2019-04-03T16:34:20.800Z,16.50
2019-04-03T16:37:09.385Z,16.40
2019-04-03T16:39:57.369Z,16.60
2019-04-03T16:42:47.570Z,16.70
2019-04-03T16:45:36.672Z,16.90
2019-04-03T16:48:24.005Z,17.10
2019-04-03T16:51:12.493Z,17.10
2019-04-03T16:54:00.836Z,17.10
2019-04-03T16:56:48.923Z,17.00
2019-04-03T16:59:37.953Z,16.90
2019-04-03T17:02:28.933Z,16.90
2019-04-03T17:05:15.503Z,16.70
2019-04-03T17:08:03.722Z,16.70
2019-04-03T17:10:51.430Z,17.10
2019-04-03T17:13:38.733Z,17.30
2019-04-03T17:16:26.369Z,17.40
2019-04-03T17:19:15.756Z,17.10
2019-04-03T17:22:06.665Z,16.90
2019-04-03T17:24:55.758Z,16.70
2019-04-03T17:27:53.583Z,16.60
2019-04-03T17:30:31.859Z,16.40
2019-04-03T17:33:19.724Z,16.10
2019-04-03T17:36:07.995Z,15.90
2019-04-03T17:38:55.564Z,15.80
2019-04-03T17:41:43.485Z,15.70
2019-04-03T17:44:31.549Z,15.60
2019-04-03T17:47:20.031Z,15.30
2019-04-03T17:50:08.785Z,15.00
2019-04-03T17:52:56.677Z,14.80
2019-04-03T17:55:45.449Z,14.70
2019-04-03T17:58:33.544Z,14.60
2019-04-03T18:01:22.413Z,14.50
2019-04-03T18:04:10.862Z,14.50
2019-04-03T18:06:58.683Z,14.40
2019-04-03T18:09:46.308Z,14.30
2019-04-03T18:12:35.954Z,14.20
2019-04-03T18:15:27.230Z,14.20
2019-04-03T18:18:14.821Z,14.10
2019-04-03T18:21:03.334Z,14.00
2019-04-03T18:23:53.349Z,14.00
2019-04-03T18:26:44.889Z,13.90
2019-04-03T18:29:31.781Z,13.80
2019-04-03T18:32:19.337Z,13.70
2019-04-03T18:35:07.451Z,13.60
2019-04-03T18:37:55.708Z,13.60
2019-04-03T18:40:45.631Z,13.40
2019-04-03T18:43:32.659Z,13.40
2019-04-03T18:46:31.518Z,13.40
2019-04-03T18:49:09.569Z,13.30
2019-04-03T18:51:57.263Z,13.30
2019-04-03T18:54:45.114Z,13.20
2019-04-03T18:57:32.408Z,13.10
2019-04-03T19:00:20.529Z,13.00
2019-04-03T19:03:08.430Z,12.90
2019-04-03T19:05:56.090Z,12.60
2019-04-03T19:08:43.726Z,12.60
2019-04-03T19:11:34.160Z,12.60
2019-04-03T19:14:27.135Z,12.50
2019-04-03T19:17:10.605Z,12.50
2019-04-03T19:20:09.837Z,12.50
2019-04-03T19:22:47.737Z,12.40
2019-04-03T19:25:35.576Z,12.30
2019-04-03T19:28:23.561Z,12.30
2019-04-03T19:31:11.215Z,12.10
2019-04-03T19:33:59.227Z,12.10
2019-04-03T19:36:46.705Z,12.10
2019-04-03T19:39:37.377Z,12.10
2019-04-03T19:42:23.318Z,11.90
2019-04-03T19:45:12.998Z,11.20
2019-04-03T19:48:00.820Z,11.10
2019-04-03T19:50:48.610Z,11.00
2019-04-03T19:53:36.047Z,10.40
2019-04-03T19:56:25.719Z,10.10
2019-04-03T19:59:13.125Z,10.40
2019-04-03T20:02:00.908Z,10.60
2019-04-03T20:04:48.348Z,10.60
2019-04-03T20:07:36.033Z,10.50
2019-04-03T20:10:23.871Z,10.30
2019-04-03T20:13:11.231Z,10.20
2019-04-03T20:15:58.564Z,10.00
2019-04-03T20:18:46.443Z,9.90
2019-04-03T20:21:35.885Z,9.70
2019-04-03T20:24:25.194Z,9.60
2019-04-03T20:27:12.596Z,9.30
2019-04-03T20:30:01.448Z,9.20
2019-04-03T20:32:49.084Z,9.00
2019-04-03T20:35:37.635Z,9.00
2019-04-03T20:38:27.174Z,8.90
2019-04-03T20:41:14.557Z,8.80
2019-04-03T20:44:01.886Z,8.60
2019-04-03T20:46:49.882Z,8.60
2019-04-03T20:49:37.510Z,8.80
2019-04-03T20:52:24.824Z,8.80
2019-04-03T20:55:12.618Z,8.80
2019-04-03T20:58:00.066Z,8.40
2019-04-03T21:00:51.504Z,8.30
2019-04-03T21:03:37.200Z,8.10
2019-04-03T21:06:24.929Z,8.10
2019-04-03T21:09:12.377Z,8.10
2019-04-03T21:11:59.973Z,8.10
2019-04-03T21:14:47.698Z,8.20
2019-04-03T21:17:35.751Z,8.20
2019-04-03T21:20:23.756Z,8.40
2019-04-03T21:23:11.923Z,8.40
2019-04-03T21:25:59.422Z,8.40
2019-04-03T21:28:47.417Z,8.30
2019-04-03T21:31:36.099Z,8.30
2019-04-03T21:34:23.625Z,8.50
2019-04-03T21:37:13.864Z,8.40
2019-04-03T21:40:04.499Z,8.40
2019-04-03T21:42:50.501Z,8.40
2019-04-03T21:45:39.124Z,8.50
2019-04-03T21:48:26.723Z,8.50
2019-04-03T21:51:14.521Z,8.30
2019-04-03T21:54:02.466Z,8.10
2019-04-03T21:56:50.696Z,8.00
2019-04-03T21:59:38.071Z,7.90
2019-04-03T22:02:25.843Z,7.80
2019-04-03T22:05:13.683Z,7.80
2019-04-03T22:08:01.301Z,7.70
2019-04-03T22:10:50.596Z,7.60
2019-04-03T22:13:39.157Z,7.50
2019-04-03T22:16:27.362Z,7.50
2019-04-03T22:19:15.167Z,7.40
2019-04-03T22:22:03.635Z,7.30
2019-04-03T22:24:51.644Z,7.30
2019-04-03T22:27:42.407Z,7.20
2019-04-03T22:30:29.542Z,7.20
2019-04-03T22:33:17.303Z,7.20
2019-04-03T22:36:05.055Z,7.10
2019-04-03T22:38:53.330Z,7.10
2019-04-03T22:41:42.858Z,7.00
2019-04-03T22:44:30.433Z,7.00
2019-04-03T22:47:17.944Z,6.90
2019-04-03T22:50:06.054Z,6.90
2019-04-03T22:52:54.093Z,6.80
2019-04-03T22:55:41.996Z,6.80
2019-04-03T22:58:29.347Z,6.90
2019-04-03T23:01:17.348Z,6.90
2019-04-03T23:04:05.858Z,6.90
2019-04-03T23:06:53.751Z,6.80
2019-04-03T23:09:41.078Z,6.90
2019-04-03T23:12:28.642Z,7.00
2019-04-03T23:15:16.662Z,7.10
2019-04-03T23:18:04.465Z,7.00
2019-04-03T23:20:52.770Z,7.00
2019-04-03T23:23:40.744Z,6.90
2019-04-03T23:26:31.740Z,6.90
2019-04-03T23:29:17.843Z,7.00
2019-04-03T23:32:05.606Z,6.80
2019-04-03T23:34:53.278Z,6.60
2019-04-03T23:37:40.944Z,6.60
2019-04-03T23:40:28.671Z,6.70
2019-04-03T23:43:16.968Z,6.70
2019-04-03T23:46:04.509Z,6.80
2019-04-03T23:48:52.831Z,6.80
2019-04-03T23:51:40.690Z,6.70
2019-04-03T23:54:28.465Z,6.60
2019-04-03T23:57:16.217Z,6.60
